sensor_id;sensor_type;location;lat;lon;timestamp;pressure;altitude;pressure_sealevel;temperature
72405;BMP280;60395;52.020;113.548;2022-09-27T00:00:08;91796.75;;;7.11
72405;BMP280;60395;52.020;113.548;2022-09-27T00:03:14;91801.19;;;7.21
72405;BMP280;60395;52.020;113.548;2022-09-27T00:06:26;91790.63;;;7.27
72405;BMP280;60395;52.020;113.548;2022-09-27T00:09:29;91813.91;;;7.39
72405;BMP280;60395;52.020;113.548;2022-09-27T00:12:33;91817.63;;;7.52
72405;BMP280;60395;52.020;113.548;2022-09-27T00:15:36;91820.06;;;7.60
72405;BMP280;60395;52.020;113.548;2022-09-27T00:18:39;91827.78;;;7.66
72405;BMP280;60395;52.020;113.548;2022-09-27T00:21:43;91845.97;;;7.72
72405;BMP280;60395;52.020;113.548;2022-09-27T00:24:47;91835.44;;;7.77
72405;BMP280;60395;52.020;113.548;2022-09-27T00:27:50;91822.34;;;7.79
72405;BMP280;60395;52.020;113.548;2022-09-27T00:30:53;91828.84;;;7.82
72405;BMP280;60395;52.020;113.548;2022-09-27T00:34:01;91814.28;;;7.91
72405;BMP280;60395;52.020;113.548;2022-09-27T00:37:05;91808.97;;;7.95
72405;BMP280;60395;52.020;113.548;2022-09-27T00:40:08;91802.31;;;8.00
72405;BMP280;60395;52.020;113.548;2022-09-27T00:43:16;91793.59;;;8.11
72405;BMP280;60395;52.020;113.548;2022-09-27T00:47:06;91777.78;;;8.17
72405;BMP280;60395;52.020;113.548;2022-09-27T00:56:24;91791.50;;;8.49
72405;BMP280;60395;52.020;113.548;2022-09-27T00:59:30;91800.97;;;8.64
72405;BMP280;60395;52.020;113.548;2022-09-27T01:02:37;91788.63;;;8.88
72405;BMP280;60395;52.020;113.548;2022-09-27T01:05:42;91792.00;;;9.11
72405;BMP280;60395;52.020;113.548;2022-09-27T01:08:45;91786.88;;;9.32
72405;BMP280;60395;52.020;113.548;2022-09-27T01:12:22;91783.63;;;9.56
72405;BMP280;60395;52.020;113.548;2022-09-27T01:15:51;91785.06;;;9.76
72405;BMP280;60395;52.020;113.548;2022-09-27T01:23:00;91784.53;;;10.18
72405;BMP280;60395;52.020;113.548;2022-09-27T01:46:28;91808.09;;;12.01
72405;BMP280;60395;52.020;113.548;2022-09-27T01:50:03;91814.66;;;12.20
72405;BMP280;60395;52.020;113.548;2022-09-27T01:53:21;91817.78;;;12.25
72405;BMP280;60395;52.020;113.548;2022-09-27T01:56:46;91804.84;;;12.35
72405;BMP280;60395;52.020;113.548;2022-09-27T02:00:04;91819.81;;;12.58
72405;BMP280;60395;52.020;113.548;2022-09-27T02:03:21;91817.28;;;12.72
72405;BMP280;60395;52.020;113.548;2022-09-27T02:06:46;91825.81;;;12.89
72405;BMP280;60395;52.020;113.548;2022-09-27T02:10:10;91845.56;;;12.90
72405;BMP280;60395;52.020;113.548;2022-09-27T02:13:37;91845.66;;;12.88
72405;BMP280;60395;52.020;113.548;2022-09-27T02:20:39;91852.53;;;12.98
72405;BMP280;60395;52.020;113.548;2022-09-27T02:23:52;91855.41;;;13.09
72405;BMP280;60395;52.020;113.548;2022-09-27T02:27:09;91857.44;;;13.23
72405;BMP280;60395;52.020;113.548;2022-09-27T02:30:15;91851.88;;;13.31
72405;BMP280;60395;52.020;113.548;2022-09-27T02:33:51;91878.75;;;13.50
72405;BMP280;60395;52.020;113.548;2022-09-27T02:36:56;91887.06;;;13.57
72405;BMP280;60395;52.020;113.548;2022-09-27T02:39:59;91878.38;;;13.43
72405;BMP280;60395;52.020;113.548;2022-09-27T02:43:04;91885.50;;;13.30
72405;BMP280;60395;52.020;113.548;2022-09-27T02:46:21;91891.31;;;13.49
72405;BMP280;60395;52.020;113.548;2022-09-27T02:56:42;91893.03;;;13.72
72405;BMP280;60395;52.020;113.548;2022-09-27T03:04:03;91903.19;;;14.13
72405;BMP280;60395;52.020;113.548;2022-09-27T03:07:12;91908.00;;;14.09
72405;BMP280;60395;52.020;113.548;2022-09-27T03:10:22;91903.13;;;13.98
72405;BMP280;60395;52.020;113.548;2022-09-27T03:13:26;91908.50;;;13.96
72405;BMP280;60395;52.020;113.548;2022-09-27T03:16:31;91894.66;;;13.96
72405;BMP280;60395;52.020;113.548;2022-09-27T03:19:57;91899.06;;;14.01
72405;BMP280;60395;52.020;113.548;2022-09-27T03:23:23;91916.19;;;14.02
72405;BMP280;60395;52.020;113.548;2022-09-27T03:26:28;91910.06;;;14.06
72405;BMP280;60395;52.020;113.548;2022-09-27T03:29:31;91913.47;;;14.19
72405;BMP280;60395;52.020;113.548;2022-09-27T03:32:43;91918.41;;;14.42
72405;BMP280;60395;52.020;113.548;2022-09-27T03:36:06;91919.59;;;14.59
72405;BMP280;60395;52.020;113.548;2022-09-27T03:39:09;91922.25;;;14.59
72405;BMP280;60395;52.020;113.548;2022-09-27T03:42:12;91915.59;;;14.60
72405;BMP280;60395;52.020;113.548;2022-09-27T03:45:21;91920.34;;;14.58
72405;BMP280;60395;52.020;113.548;2022-09-27T03:48:25;91910.31;;;14.60
72405;BMP280;60395;52.020;113.548;2022-09-27T03:51:29;91919.97;;;14.66
72405;BMP280;60395;52.020;113.548;2022-09-27T03:54:32;91924.66;;;14.80
72405;BMP280;60395;52.020;113.548;2022-09-27T03:57:36;91925.16;;;14.83
72405;BMP280;60395;52.020;113.548;2022-09-27T04:00:41;91932.34;;;14.70
72405;BMP280;60395;52.020;113.548;2022-09-27T04:03:45;91938.47;;;14.66
72405;BMP280;60395;52.020;113.548;2022-09-27T04:07:04;91934.72;;;14.76
72405;BMP280;60395;52.020;113.548;2022-09-27T04:10:07;91952.91;;;14.69
72405;BMP280;60395;52.020;113.548;2022-09-27T04:13:12;91949.13;;;14.64
72405;BMP280;60395;52.020;113.548;2022-09-27T04:16:23;91943.03;;;14.68
72405;BMP280;60395;52.020;113.548;2022-09-27T04:19:50;91955.88;;;14.61
72405;BMP280;60395;52.020;113.548;2022-09-27T04:22:54;91945.03;;;14.52
72405;BMP280;60395;52.020;113.548;2022-09-27T04:25:57;91961.25;;;14.59
72405;BMP280;60395;52.020;113.548;2022-09-27T04:29:22;91953.25;;;14.61
72405;BMP280;60395;52.020;113.548;2022-09-27T04:32:27;91953.88;;;14.61
72405;BMP280;60395;52.020;113.548;2022-09-27T04:35:49;91951.69;;;14.66
72405;BMP280;60395;52.020;113.548;2022-09-27T04:39:14;91951.75;;;14.64
72405;BMP280;60395;52.020;113.548;2022-09-27T04:42:18;91954.25;;;14.68
72405;BMP280;60395;52.020;113.548;2022-09-27T04:45:22;91954.78;;;14.71
72405;BMP280;60395;52.020;113.548;2022-09-27T04:48:25;91957.50;;;14.54
72405;BMP280;60395;52.020;113.548;2022-09-27T04:51:29;91954.38;;;14.35
72405;BMP280;60395;52.020;113.548;2022-09-27T04:54:32;91968.97;;;14.34
72405;BMP280;60395;52.020;113.548;2022-09-27T04:57:45;91965.44;;;14.39
72405;BMP280;60395;52.020;113.548;2022-09-27T05:00:48;91970.44;;;14.45
72405;BMP280;60395;52.020;113.548;2022-09-27T05:04:12;91986.31;;;14.45
72405;BMP280;60395;52.020;113.548;2022-09-27T05:07:20;91980.00;;;14.38
72405;BMP280;60395;52.020;113.548;2022-09-27T05:10:28;91980.38;;;14.45
72405;BMP280;60395;52.020;113.548;2022-09-27T05:13:31;91981.19;;;14.41
72405;BMP280;60395;52.020;113.548;2022-09-27T05:16:35;91974.41;;;14.30
72405;BMP280;60395;52.020;113.548;2022-09-27T05:19:57;91975.63;;;14.01
72405;BMP280;60395;52.020;113.548;2022-09-27T05:23:12;91979.47;;;13.88
72405;BMP280;60395;52.020;113.548;2022-09-27T05:26:15;91977.56;;;13.86
72405;BMP280;60395;52.020;113.548;2022-09-27T05:29:18;91981.63;;;13.83
72405;BMP280;60395;52.020;113.548;2022-09-27T05:32:41;91994.44;;;13.77
72405;BMP280;60395;52.020;113.548;2022-09-27T05:36:06;92001.47;;;13.66
72405;BMP280;60395;52.020;113.548;2022-09-27T05:39:10;92002.69;;;13.52
72405;BMP280;60395;52.020;113.548;2022-09-27T05:42:14;92008.09;;;13.48
72405;BMP280;60395;52.020;113.548;2022-09-27T05:45:18;92004.19;;;13.47
72405;BMP280;60395;52.020;113.548;2022-09-27T05:48:21;92011.94;;;13.51
72405;BMP280;60395;52.020;113.548;2022-09-27T05:51:35;92016.66;;;13.65
72405;BMP280;60395;52.020;113.548;2022-09-27T05:54:38;92009.47;;;13.64
72405;BMP280;60395;52.020;113.548;2022-09-27T05:57:53;92022.50;;;13.68
72405;BMP280;60395;52.020;113.548;2022-09-27T06:01:06;92022.19;;;13.59
72405;BMP280;60395;52.020;113.548;2022-09-27T06:04:29;92024.31;;;13.55
72405;BMP280;60395;52.020;113.548;2022-09-27T06:08:07;92028.66;;;13.62
72405;BMP280;60395;52.020;113.548;2022-09-27T06:11:16;92012.13;;;13.64
72405;BMP280;60395;52.020;113.548;2022-09-27T06:14:21;92028.09;;;13.76
72405;BMP280;60395;52.020;113.548;2022-09-27T06:17:34;92030.19;;;13.74
72405;BMP280;60395;52.020;113.548;2022-09-27T06:20:44;92021.63;;;13.57
72405;BMP280;60395;52.020;113.548;2022-09-27T06:23:47;92021.53;;;13.42
72405;BMP280;60395;52.020;113.548;2022-09-27T06:27:02;92026.72;;;13.44
72405;BMP280;60395;52.020;113.548;2022-09-27T06:30:21;92030.00;;;13.44
72405;BMP280;60395;52.020;113.548;2022-09-27T06:33:27;92028.81;;;13.58
72405;BMP280;60395;52.020;113.548;2022-09-27T06:36:33;92042.56;;;13.61
72405;BMP280;60395;52.020;113.548;2022-09-27T06:39:36;92042.25;;;13.69
72405;BMP280;60395;52.020;113.548;2022-09-27T06:43:19;92032.63;;;13.61
72405;BMP280;60395;52.020;113.548;2022-09-27T06:46:41;92043.94;;;13.60
72405;BMP280;60395;52.020;113.548;2022-09-27T06:50:17;92044.25;;;13.68
72405;BMP280;60395;52.020;113.548;2022-09-27T06:53:21;92046.19;;;13.70
72405;BMP280;60395;52.020;113.548;2022-09-27T06:56:24;92044.25;;;13.68
72405;BMP280;60395;52.020;113.548;2022-09-27T06:59:28;92042.44;;;13.65
72405;BMP280;60395;52.020;113.548;2022-09-27T07:03:24;92048.19;;;13.69
72405;BMP280;60395;52.020;113.548;2022-09-27T07:07:01;92049.38;;;13.72
72405;BMP280;60395;52.020;113.548;2022-09-27T07:10:10;92058.09;;;13.69
72405;BMP280;60395;52.020;113.548;2022-09-27T07:13:14;92053.59;;;13.65
72405;BMP280;60395;52.020;113.548;2022-09-27T07:16:17;92068.25;;;13.79
72405;BMP280;60395;52.020;113.548;2022-09-27T07:19:20;92073.31;;;13.85
72405;BMP280;60395;52.020;113.548;2022-09-27T07:22:25;92072.06;;;13.82
72405;BMP280;60395;52.020;113.548;2022-09-27T07:25:34;92072.34;;;13.76
72405;BMP280;60395;52.020;113.548;2022-09-27T07:28:37;92061.69;;;13.78
72405;BMP280;60395;52.020;113.548;2022-09-27T07:31:47;92066.19;;;13.81
72405;BMP280;60395;52.020;113.548;2022-09-27T07:34:51;92061.94;;;13.88
72405;BMP280;60395;52.020;113.548;2022-09-27T07:37:56;92064.16;;;13.98
72405;BMP280;60395;52.020;113.548;2022-09-27T07:41:09;92066.25;;;13.96
72405;BMP280;60395;52.020;113.548;2022-09-27T07:44:15;92082.91;;;13.92
72405;BMP280;60395;52.020;113.548;2022-09-27T07:47:43;92081.94;;;13.83
72405;BMP280;60395;52.020;113.548;2022-09-27T07:50:55;92093.78;;;13.84
72405;BMP280;60395;52.020;113.548;2022-09-27T07:54:24;92083.78;;;13.87
72405;BMP280;60395;52.020;113.548;2022-09-27T07:57:45;92092.31;;;13.87
72405;BMP280;60395;52.020;113.548;2022-09-27T08:00:50;92103.50;;;13.71
72405;BMP280;60395;52.020;113.548;2022-09-27T08:03:54;92105.09;;;13.64
72405;BMP280;60395;52.020;113.548;2022-09-27T08:07:00;92109.88;;;13.60
72405;BMP280;60395;52.020;113.548;2022-09-27T08:10:04;92106.63;;;13.59
72405;BMP280;60395;52.020;113.548;2022-09-27T08:13:09;92117.53;;;13.49
72405;BMP280;60395;52.020;113.548;2022-09-27T08:16:15;92117.84;;;13.41
72405;BMP280;60395;52.020;113.548;2022-09-27T08:19:36;92108.94;;;13.32
72405;BMP280;60395;52.020;113.548;2022-09-27T08:23:15;92126.91;;;13.27
72405;BMP280;60395;52.020;113.548;2022-09-27T08:26:22;92123.88;;;13.21
72405;BMP280;60395;52.020;113.548;2022-09-27T08:29:45;92125.97;;;13.16
72405;BMP280;60395;52.020;113.548;2022-09-27T08:32:54;92116.28;;;13.11
72405;BMP280;60395;52.020;113.548;2022-09-27T08:35:58;92111.81;;;13.07
72405;BMP280;60395;52.020;113.548;2022-09-27T08:39:04;92110.03;;;13.02
72405;BMP280;60395;52.020;113.548;2022-09-27T08:49:37;92124.66;;;12.99
72405;BMP280;60395;52.020;113.548;2022-09-27T08:52:46;92129.09;;;12.83
72405;BMP280;60395;52.020;113.548;2022-09-27T08:55:54;92133.88;;;12.79
72405;BMP280;60395;52.020;113.548;2022-09-27T08:59:13;92137.31;;;12.75
72405;BMP280;60395;52.020;113.548;2022-09-27T09:02:20;92141.97;;;12.73
72405;BMP280;60395;52.020;113.548;2022-09-27T09:05:33;92146.69;;;12.70
72405;BMP280;60395;52.020;113.548;2022-09-27T09:16:05;92159.44;;;12.43
72405;BMP280;60395;52.020;113.548;2022-09-27T09:23:26;92171.25;;;12.23
72405;BMP280;60395;52.020;113.548;2022-09-27T09:26:46;92177.97;;;11.98
72405;BMP280;60395;52.020;113.548;2022-09-27T09:30:30;92193.81;;;11.73
72405;BMP280;60395;52.020;113.548;2022-09-27T09:33:40;92198.88;;;11.56
72405;BMP280;60395;52.020;113.548;2022-09-27T09:36:56;92202.44;;;11.47
72405;BMP280;60395;52.020;113.548;2022-09-27T09:43:51;92211.03;;;11.20
72405;BMP280;60395;52.020;113.548;2022-09-27T09:46:59;92218.69;;;11.04
72405;BMP280;60395;52.020;113.548;2022-09-27T09:50:19;92215.78;;;10.89
72405;BMP280;60395;52.020;113.548;2022-09-27T09:56:48;92231.94;;;10.73
72405;BMP280;60395;52.020;113.548;2022-09-27T10:00:13;92238.66;;;10.68
72405;BMP280;60395;52.020;113.548;2022-09-27T10:03:22;92234.25;;;10.58
72405;BMP280;60395;52.020;113.548;2022-09-27T10:06:27;92246.41;;;10.45
72405;BMP280;60395;52.020;113.548;2022-09-27T10:09:33;92254.50;;;10.35
72405;BMP280;60395;52.020;113.548;2022-09-27T10:13:20;92262.56;;;10.25
72405;BMP280;60395;52.020;113.548;2022-09-27T10:16:31;92266.75;;;10.14
72405;BMP280;60395;52.020;113.548;2022-09-27T10:19:35;92274.25;;;10.01
72405;BMP280;60395;52.020;113.548;2022-09-27T10:22:48;92271.78;;;9.93
72405;BMP280;60395;52.020;113.548;2022-09-27T10:26:11;92271.31;;;9.85
72405;BMP280;60395;52.020;113.548;2022-09-27T10:29:29;92272.06;;;9.79
72405;BMP280;60395;52.020;113.548;2022-09-27T10:32:40;92272.94;;;9.67
72405;BMP280;60395;52.020;113.548;2022-09-27T10:36:22;92277.03;;;9.58
72405;BMP280;60395;52.020;113.548;2022-09-27T10:39:27;92279.81;;;9.52
72405;BMP280;60395;52.020;113.548;2022-09-27T10:42:36;92281.25;;;9.43
72405;BMP280;60395;52.020;113.548;2022-09-27T10:45:43;92289.31;;;9.33
72405;BMP280;60395;52.020;113.548;2022-09-27T10:49:09;92296.59;;;9.29
72405;BMP280;60395;52.020;113.548;2022-09-27T10:52:19;92298.06;;;9.19
72405;BMP280;60395;52.020;113.548;2022-09-27T10:55:26;92303.41;;;9.13
72405;BMP280;60395;52.020;113.548;2022-09-27T10:58:33;92306.81;;;9.04
72405;BMP280;60395;52.020;113.548;2022-09-27T11:01:45;92304.94;;;8.98
72405;BMP280;60395;52.020;113.548;2022-09-27T11:08:31;92313.59;;;8.89
72405;BMP280;60395;52.020;113.548;2022-09-27T11:11:49;92321.53;;;8.85
72405;BMP280;60395;52.020;113.548;2022-09-27T11:15:02;92324.25;;;8.77
72405;BMP280;60395;52.020;113.548;2022-09-27T11:25:32;92330.97;;;8.65
72405;BMP280;60395;52.020;113.548;2022-09-27T11:32:09;92342.13;;;8.64
72405;BMP280;60395;52.020;113.548;2022-09-27T11:35:43;92345.41;;;8.60
72405;BMP280;60395;52.020;113.548;2022-09-27T11:39:08;92352.72;;;8.54
72405;BMP280;60395;52.020;113.548;2022-09-27T12:06:14;92368.16;;;8.21
72405;BMP280;60395;52.020;113.548;2022-09-27T12:09:27;92378.72;;;8.15
72405;BMP280;60395;52.020;113.548;2022-09-27T12:12:32;92380.78;;;8.06
72405;BMP280;60395;52.020;113.548;2022-09-27T12:15:41;92373.00;;;7.98
72405;BMP280;60395;52.020;113.548;2022-09-27T12:18:47;92381.59;;;7.91
72405;BMP280;60395;52.020;113.548;2022-09-27T12:22:14;92380.34;;;7.84
72405;BMP280;60395;52.020;113.548;2022-09-27T12:25:40;92367.97;;;7.78
72405;BMP280;60395;52.020;113.548;2022-09-27T12:28:54;92380.47;;;7.71
72405;BMP280;60395;52.020;113.548;2022-09-27T12:33:11;92391.03;;;7.61
72405;BMP280;60395;52.020;113.548;2022-09-27T12:35:50;92396.38;;;7.45
72405;BMP280;60395;52.020;113.548;2022-09-27T12:39:21;92394.53;;;7.32
72405;BMP280;60395;52.020;113.548;2022-09-27T12:42:49;92397.88;;;7.18
72405;BMP280;60395;52.020;113.548;2022-09-27T12:49:32;92381.69;;;7.03
72405;BMP280;60395;52.020;113.548;2022-09-27T12:52:43;92383.03;;;6.96
72405;BMP280;60395;52.020;113.548;2022-09-27T12:59:15;92401.31;;;6.94
72405;BMP280;60395;52.020;113.548;2022-09-27T13:02:49;92407.91;;;6.87
72405;BMP280;60395;52.020;113.548;2022-09-27T13:07:01;92405.28;;;6.83
72405;BMP280;60395;52.020;113.548;2022-09-27T13:10:19;92421.59;;;6.88
72405;BMP280;60395;52.020;113.548;2022-09-27T13:13:32;92415.13;;;6.79
72405;BMP280;60395;52.020;113.548;2022-09-27T13:16:43;92413.84;;;6.69
72405;BMP280;60395;52.020;113.548;2022-09-27T13:19:51;92418.47;;;6.61
72405;BMP280;60395;52.020;113.548;2022-09-27T13:22:55;92428.25;;;6.56
72405;BMP280;60395;52.020;113.548;2022-09-27T13:29:40;92435.50;;;6.40
72405;BMP280;60395;52.020;113.548;2022-09-27T13:39:25;92435.63;;;5.99
72405;BMP280;60395;52.020;113.548;2022-09-27T13:46:05;92433.69;;;5.63
72405;BMP280;60395;52.020;113.548;2022-09-27T13:49:30;92436.31;;;5.47
72405;BMP280;60395;52.020;113.548;2022-09-27T13:53:11;92433.72;;;5.37
72405;BMP280;60395;52.020;113.548;2022-09-27T13:59:49;92433.03;;;5.43
72405;BMP280;60395;52.020;113.548;2022-09-27T14:03:32;92440.22;;;5.50
72405;BMP280;60395;52.020;113.548;2022-09-27T14:06:44;92440.22;;;5.44
72405;BMP280;60395;52.020;113.548;2022-09-27T14:09:53;92446.06;;;5.37
72405;BMP280;60395;52.020;113.548;2022-09-27T14:13:03;92452.59;;;5.40
72405;BMP280;60395;52.020;113.548;2022-09-27T14:16:16;92459.72;;;5.41
72405;BMP280;60395;52.020;113.548;2022-09-27T14:19:23;92464.31;;;5.41
72405;BMP280;60395;52.020;113.548;2022-09-27T14:22:29;92464.97;;;5.33
72405;BMP280;60395;52.020;113.548;2022-09-27T14:25:44;92456.47;;;5.24
72405;BMP280;60395;52.020;113.548;2022-09-27T14:28:49;92466.22;;;5.30
72405;BMP280;60395;52.020;113.548;2022-09-27T14:32:04;92476.66;;;5.26
72405;BMP280;60395;52.020;113.548;2022-09-27T14:35:30;92479.88;;;5.18
72405;BMP280;60395;52.020;113.548;2022-09-27T14:38:52;92480.53;;;5.11
72405;BMP280;60395;52.020;113.548;2022-09-27T14:42:15;92482.44;;;5.02
72405;BMP280;60395;52.020;113.548;2022-09-27T14:45:26;92491.50;;;4.85
72405;BMP280;60395;52.020;113.548;2022-09-27T14:48:38;92497.25;;;4.61
72405;BMP280;60395;52.020;113.548;2022-09-27T14:51:42;92514.09;;;4.48
72405;BMP280;60395;52.020;113.548;2022-09-27T14:55:01;92510.88;;;4.50
72405;BMP280;60395;52.020;113.548;2022-09-27T14:58:12;92492.66;;;4.50
72405;BMP280;60395;52.020;113.548;2022-09-27T15:01:36;92506.94;;;4.47
72405;BMP280;60395;52.020;113.548;2022-09-27T15:04:44;92508.88;;;4.44
72405;BMP280;60395;52.020;113.548;2022-09-27T15:07:49;92510.69;;;4.21
72405;BMP280;60395;52.020;113.548;2022-09-27T15:10:53;92516.47;;;4.08
72405;BMP280;60395;52.020;113.548;2022-09-27T15:13:57;92503.34;;;3.93
72405;BMP280;60395;52.020;113.548;2022-09-27T15:17:03;92505.31;;;3.97
72405;BMP280;60395;52.020;113.548;2022-09-27T15:20:25;92512.53;;;4.05
72405;BMP280;60395;52.020;113.548;2022-09-27T15:23:38;92500.22;;;4.09
72405;BMP280;60395;52.020;113.548;2022-09-27T15:26:43;92500.13;;;3.99
72405;BMP280;60395;52.020;113.548;2022-09-27T15:29:52;92499.41;;;3.88
72405;BMP280;60395;52.020;113.548;2022-09-27T15:32:56;92501.97;;;3.82
72405;BMP280;60395;52.020;113.548;2022-09-27T15:36:04;92501.94;;;3.80
72405;BMP280;60395;52.020;113.548;2022-09-27T15:39:08;92496.78;;;3.82
72405;BMP280;60395;52.020;113.548;2022-09-27T15:42:15;92502.69;;;3.89
72405;BMP280;60395;52.020;113.548;2022-09-27T15:45:33;92505.94;;;3.91
72405;BMP280;60395;52.020;113.548;2022-09-27T15:48:36;92500.66;;;3.81
72405;BMP280;60395;52.020;113.548;2022-09-27T15:51:41;92504.47;;;3.70
72405;BMP280;60395;52.020;113.548;2022-09-27T15:54:45;92503.16;;;3.69
72405;BMP280;60395;52.020;113.548;2022-09-27T15:57:51;92505.78;;;3.71
72405;BMP280;60395;52.020;113.548;2022-09-27T16:01:00;92507.13;;;3.78
72405;BMP280;60395;52.020;113.548;2022-09-27T16:04:09;92505.25;;;3.85
72405;BMP280;60395;52.020;113.548;2022-09-27T16:07:13;92503.91;;;3.82
72405;BMP280;60395;52.020;113.548;2022-09-27T16:13:22;92512.03;;;3.44
72405;BMP280;60395;52.020;113.548;2022-09-27T16:16:32;92510.66;;;3.37
72405;BMP280;60395;52.020;113.548;2022-09-27T16:19:36;92514.50;;;3.34
72405;BMP280;60395;52.020;113.548;2022-09-27T16:22:39;92507.34;;;3.30
72405;BMP280;60395;52.020;113.548;2022-09-27T16:25:42;92513.19;;;3.31
72405;BMP280;60395;52.020;113.548;2022-09-27T16:28:45;92521.69;;;3.35
72405;BMP280;60395;52.020;113.548;2022-09-27T16:31:48;92526.19;;;3.33
72405;BMP280;60395;52.020;113.548;2022-09-27T16:34:52;92524.88;;;3.30
72405;BMP280;60395;52.020;113.548;2022-09-27T16:37:55;92526.22;;;3.37
72405;BMP280;60395;52.020;113.548;2022-09-27T16:41:03;92529.56;;;3.47
72405;BMP280;60395;52.020;113.548;2022-09-27T16:44:07;92531.53;;;3.49
72405;BMP280;60395;52.020;113.548;2022-09-27T16:47:10;92539.34;;;3.53
72405;BMP280;60395;52.020;113.548;2022-09-27T16:50:14;92537.91;;;3.38
72405;BMP280;60395;52.020;113.548;2022-09-27T16:53:36;92540.25;;;3.14
72405;BMP280;60395;52.020;113.548;2022-09-27T16:56:39;92533.00;;;3.04
72405;BMP280;60395;52.020;113.548;2022-09-27T16:59:43;92529.88;;;3.14
72405;BMP280;60395;52.020;113.548;2022-09-27T17:02:46;92535.66;;;3.10
72405;BMP280;60395;52.020;113.548;2022-09-27T17:05:50;92527.66;;;2.90
72405;BMP280;60395;52.020;113.548;2022-09-27T17:08:53;92537.75;;;2.68
72405;BMP280;60395;52.020;113.548;2022-09-27T17:11:57;92544.81;;;2.65
72405;BMP280;60395;52.020;113.548;2022-09-27T17:15:00;92553.25;;;2.62
72405;BMP280;60395;52.020;113.548;2022-09-27T17:18:03;92553.81;;;2.56
72405;BMP280;60395;52.020;113.548;2022-09-27T17:21:07;92559.72;;;2.65
72405;BMP280;60395;52.020;113.548;2022-09-27T17:24:10;92548.28;;;2.82
72405;BMP280;60395;52.020;113.548;2022-09-27T17:27:14;92550.38;;;2.91
72405;BMP280;60395;52.020;113.548;2022-09-27T17:30:17;92537.34;;;2.85
72405;BMP280;60395;52.020;113.548;2022-09-27T17:33:21;92539.28;;;2.87
72405;BMP280;60395;52.020;113.548;2022-09-27T17:36:27;92543.88;;;2.90
72405;BMP280;60395;52.020;113.548;2022-09-27T17:39:31;92549.72;;;2.91
72405;BMP280;60395;52.020;113.548;2022-09-27T17:42:34;92545.13;;;2.87
72405;BMP280;60395;52.020;113.548;2022-09-27T17:45:38;92550.88;;;2.82
72405;BMP280;60395;52.020;113.548;2022-09-27T17:48:42;92561.34;;;2.86
72405;BMP280;60395;52.020;113.548;2022-09-27T17:52:03;92564.69;;;2.98
72405;BMP280;60395;52.020;113.548;2022-09-27T17:55:06;92566.00;;;2.99
72405;BMP280;60395;52.020;113.548;2022-09-27T17:58:09;92568.59;;;2.97
72405;BMP280;60395;52.020;113.548;2022-09-27T18:01:12;92571.72;;;2.88
72405;BMP280;60395;52.020;113.548;2022-09-27T18:04:17;92575.97;;;2.67
72405;BMP280;60395;52.020;113.548;2022-09-27T18:07:21;92581.59;;;2.51
72405;BMP280;60395;52.020;113.548;2022-09-27T18:10:24;92592.56;;;2.48
72405;BMP280;60395;52.020;113.548;2022-09-27T18:13:28;92600.34;;;2.48
72405;BMP280;60395;52.020;113.548;2022-09-27T18:16:37;92600.94;;;2.44
72405;BMP280;60395;52.020;113.548;2022-09-27T18:19:41;92600.16;;;2.38
72405;BMP280;60395;52.020;113.548;2022-09-27T18:22:44;92589.69;;;2.28
72405;BMP280;60395;52.020;113.548;2022-09-27T18:25:53;92601.31;;;2.27
72405;BMP280;60395;52.020;113.548;2022-09-27T18:29:02;92592.94;;;2.28
72405;BMP280;60395;52.020;113.548;2022-09-27T18:32:06;92595.41;;;2.22
72405;BMP280;60395;52.020;113.548;2022-09-27T18:35:09;92584.94;;;2.14
72405;BMP280;60395;52.020;113.548;2022-09-27T18:38:12;92582.81;;;2.04
72405;BMP280;60395;52.020;113.548;2022-09-27T18:41:19;92582.06;;;1.98
72405;BMP280;60395;52.020;113.548;2022-09-27T18:44:22;92586.94;;;1.80
72405;BMP280;60395;52.020;113.548;2022-09-27T18:47:25;92590.59;;;1.66
72405;BMP280;60395;52.020;113.548;2022-09-27T18:50:29;92593.53;;;1.51
72405;BMP280;60395;52.020;113.548;2022-09-27T18:53:32;92597.25;;;1.42
72405;BMP280;60395;52.020;113.548;2022-09-27T18:56:36;92601.16;;;1.43
72405;BMP280;60395;52.020;113.548;2022-09-27T18:59:43;92605.00;;;1.42
72405;BMP280;60395;52.020;113.548;2022-09-27T19:02:49;92601.06;;;1.39
72405;BMP280;60395;52.020;113.548;2022-09-27T19:05:57;92587.47;;;1.38
72405;BMP280;60395;52.020;113.548;2022-09-27T19:09:00;92593.94;;;1.37
72405;BMP280;60395;52.020;113.548;2022-09-27T19:12:05;92599.25;;;1.45
72405;BMP280;60395;52.020;113.548;2022-09-27T19:15:08;92593.31;;;1.39
72405;BMP280;60395;52.020;113.548;2022-09-27T19:18:12;92600.94;;;1.31
72405;BMP280;60395;52.020;113.548;2022-09-27T19:21:21;92601.69;;;1.37
72405;BMP280;60395;52.020;113.548;2022-09-27T19:24:24;92607.69;;;1.46
72405;BMP280;60395;52.020;113.548;2022-09-27T19:27:29;92608.16;;;1.38
72405;BMP280;60395;52.020;113.548;2022-09-27T19:30:33;92609.78;;;1.21
72405;BMP280;60395;52.020;113.548;2022-09-27T19:33:36;92606.41;;;1.13
72405;BMP280;60395;52.020;113.548;2022-09-27T19:36:39;92605.59;;;1.04
72405;BMP280;60395;52.020;113.548;2022-09-27T19:39:42;92597.16;;;1.04
72405;BMP280;60395;52.020;113.548;2022-09-27T19:42:50;92594.59;;;1.06
72405;BMP280;60395;52.020;113.548;2022-09-27T19:45:53;92598.56;;;1.09
72405;BMP280;60395;52.020;113.548;2022-09-27T19:48:56;92603.75;;;1.11
72405;BMP280;60395;52.020;113.548;2022-09-27T19:52:00;92594.72;;;1.10
72405;BMP280;60395;52.020;113.548;2022-09-27T19:55:04;92595.31;;;1.08
72405;BMP280;60395;52.020;113.548;2022-09-27T19:58:07;92579.22;;;1.12
72405;BMP280;60395;52.020;113.548;2022-09-27T20:01:11;92579.19;;;1.10
72405;BMP280;60395;52.020;113.548;2022-09-27T20:04:14;92585.50;;;1.03
72405;BMP280;60395;52.020;113.548;2022-09-27T20:07:18;92580.00;;;0.87
72405;BMP280;60395;52.020;113.548;2022-09-27T20:10:21;92590.25;;;0.82
72405;BMP280;60395;52.020;113.548;2022-09-27T20:13:26;92583.56;;;0.71